Time;durP1;ratioP1;P1;durP2;ratioP2;P2;SDS_P1;SDS_P2;PMS_P1;PMS_P2;Temp;Humidity;BMP_temperature;BMP_pressure;BME280_temperature;BME280_humidity;BME280_pressure;Samples;Min_cycle;Max_cycle;Signal;HPM_P1;HPM_P2
2022/05/20 00:00:46;;;;;;;6.90;1.92;;;11.80;99.90;;;;;;5021403;28;20030;-75
2022/05/20 00:03:12;;;;;;;8.98;1.98;;;11.80;99.90;;;;;;5030486;28;20041;-75
2022/05/20 00:05:38;;;;;;;8.45;2.03;;;11.70;99.90;;;;;;5033474;28;20044;-75
2022/05/20 00:08:04;;;;;;;8.80;1.85;;;11.80;99.90;;;;;;5032472;28;20852;-76
2022/05/20 00:10:30;;;;;;;8.43;1.73;;;11.70;99.90;;;;;;5024053;28;20029;-75
2022/05/20 00:12:59;;;;;;;10.75;1.77;;;11.70;99.90;;;;;;5023067;28;20035;-75
2022/05/20 00:15:26;;;;;;;9.88;2.38;;;11.80;99.90;;;;;;5022768;28;20044;-75
2022/05/20 00:17:52;;;;;;;16.48;3.33;;;11.80;99.90;;;;;;5023638;28;20083;-75
2022/05/20 00:20:20;;;;;;;13.95;2.90;;;11.90;99.90;;;;;;5023155;28;20033;-74
2022/05/20 00:22:46;;;;;;;10.32;2.17;;;11.90;99.90;;;;;;5029154;28;20033;-75
2022/05/20 00:27:58;;;;;;;14.88;2.85;;;11.90;99.90;;;;;;5029959;28;20060;-75
2022/05/20 00:30:24;;;;;;;15.25;2.60;;;11.90;99.90;;;;;;5024193;28;20850;-75
2022/05/20 00:32:51;;;;;;;13.73;1.98;;;11.90;99.90;;;;;;5023359;28;20036;-75
2022/05/20 00:35:16;;;;;;;14.13;2.55;;;12.00;99.90;;;;;;5020054;28;20025;-75
2022/05/20 00:37:42;;;;;;;17.38;3.20;;;11.90;99.90;;;;;;5021941;28;20025;-75
2022/05/20 00:40:11;;;;;;;13.45;2.60;;;11.90;99.90;;;;;;5035301;28;20053;-75
2022/05/20 00:42:37;;;;;;;12.77;2.40;;;12.00;99.90;;;;;;5024677;28;20156;-75
2022/05/20 00:45:06;;;;;;;10.82;2.22;;;11.90;99.90;;;;;;5029061;28;20166;-75
2022/05/20 00:47:32;;;;;;;8.60;1.95;;;11.90;99.90;;;;;;5024845;28;20108;-75
2022/05/20 00:50:04;;;;;;;19.48;2.92;;;11.90;99.90;;;;;;5024611;28;20036;-75
2022/05/20 00:52:32;;;;;;;7.97;2.70;;;11.90;99.90;;;;;;5041216;28;20479;-75
2022/05/20 00:55:02;;;;;;;15.15;2.08;;;11.90;99.90;;;;;;5052747;28;20623;-75
2022/05/20 00:57:33;;;;;;;13.10;2.60;;;11.90;99.90;;;;;;5036113;28;20033;-75
2022/05/20 01:00:10;;;;;;;13.20;2.40;;;11.90;99.90;;;;;;5025339;28;20045;-75
2022/05/20 01:02:36;;;;;;;11.38;2.25;;;11.90;99.90;;;;;;5027747;28;20609;-74
2022/05/20 01:05:05;;;;;;;18.13;2.65;;;11.80;99.90;;;;;;5021908;28;20041;-75
2022/05/20 01:07:36;;;;;;;13.07;2.17;;;11.80;99.90;;;;;;5011053;28;20065;-74
2022/05/20 01:10:03;;;;;;;13.77;2.42;;;11.80;99.90;;;;;;5023077;28;20044;-75
2022/05/20 01:12:28;;;;;;;14.60;2.58;;;11.70;99.90;;;;;;5019305;28;20030;-74
2022/05/20 01:14:54;;;;;;;8.98;2.05;;;11.60;99.90;;;;;;5041901;28;20035;-75
2022/05/20 01:17:21;;;;;;;10.40;2.00;;;11.40;99.90;;;;;;5025791;28;20315;-75
2022/05/20 01:19:55;;;;;;;17.30;3.20;;;11.30;99.90;;;;;;5020727;28;20068;-75
2022/05/20 01:22:25;;;;;;;14.88;3.00;;;11.20;99.90;;;;;;5022214;28;20042;-75
2022/05/20 01:24:51;;;;;;;12.18;2.63;;;11.10;99.90;;;;;;5031785;28;20054;-75
2022/05/20 01:27:16;;;;;;;17.77;2.60;;;11.00;99.90;;;;;;5016779;28;20192;-75
2022/05/20 01:29:42;;;;;;;23.02;3.33;;;11.00;99.90;;;;;;5029442;28;20040;-75
2022/05/20 01:32:08;;;;;;;13.45;2.35;;;11.00;99.90;;;;;;5014144;28;20032;-75
2022/05/20 01:34:33;;;;;;;16.08;3.95;;;11.00;99.90;;;;;;5018166;28;20033;-75
2022/05/20 01:36:59;;;;;;;15.05;2.70;;;10.90;99.90;;;;;;5009915;28;20409;-75
2022/05/20 01:39:25;;;;;;;14.73;2.97;;;10.90;99.90;;;;;;5025296;28;20074;-75
2022/05/20 01:42:07;;;;;;;17.48;2.75;;;10.80;99.90;;;;;;5039160;28;20076;-75
2022/05/20 01:44:43;;;;;;;12.15;2.70;;;10.80;99.90;;;;;;5022820;28;20527;-75
2022/05/20 01:47:23;;;;;;;13.65;2.80;;;10.80;99.90;;;;;;5019072;28;20032;-75
2022/05/20 01:50:00;;;;;;;19.63;3.67;;;10.90;99.90;;;;;;5022625;28;20583;-75
2022/05/20 01:52:53;;;;;;;11.48;2.53;;;10.80;99.90;;;;;;5022272;28;20020;-74
2022/05/20 01:55:42;;;;;;;14.68;3.03;;;10.80;99.90;;;;;;5023531;28;20029;-75
2022/05/20 01:58:15;;;;;;;12.23;2.88;;;10.80;99.90;;;;;;5028210;28;20041;-75
2022/05/20 02:00:42;;;;;;;15.70;3.25;;;10.70;99.90;;;;;;5026940;28;20108;-75
2022/05/20 02:03:37;;;;;;;19.50;3.75;;;10.70;99.90;;;;;;5014551;28;20041;-75
2022/05/20 02:06:19;;;;;;;13.02;3.17;;;10.70;99.90;;;;;;5022504;28;20026;-75
2022/05/20 02:08:59;;;;;;;11.35;3.22;;;10.80;99.90;;;;;;5022636;28;20120;-75
2022/05/20 02:11:25;;;;;;;14.77;3.42;;;10.70;99.90;;;;;;5022117;28;20492;-75
2022/05/20 02:14:02;;;;;;;17.05;3.50;;;10.70;99.90;;;;;;5023910;28;20033;-75
2022/05/20 02:16:32;;;;;;;15.07;3.15;;;10.70;99.90;;;;;;5024589;28;20036;-75
2022/05/20 02:19:16;;;;;;;20.67;3.83;;;10.80;99.90;;;;;;5024121;28;20071;-75
2022/05/20 02:21:47;;;;;;;12.15;3.33;;;10.90;99.90;;;;;;5021796;28;20033;-75
2022/05/20 02:24:18;;;;;;;14.32;3.10;;;10.90;99.90;;;;;;5019960;28;20060;-75
2022/05/20 02:26:50;;;;;;;10.35;3.20;;;11.00;99.90;;;;;;5019792;28;20481;-75
2022/05/20 02:29:21;;;;;;;13.25;3.60;;;11.00;99.90;;;;;;5021596;28;20590;-75
2022/05/20 02:32:00;;;;;;;12.23;3.17;;;11.00;99.90;;;;;;5020764;28;20064;-75
2022/05/20 02:34:26;;;;;;;9.60;2.30;;;11.10;99.90;;;;;;5020473;28;20041;-75
2022/05/20 02:36:51;;;;;;;14.07;3.38;;;11.10;99.90;;;;;;5020818;28;20033;-74
2022/05/20 02:39:17;;;;;;;15.98;3.78;;;11.10;99.90;;;;;;5021320;28;20040;-75
2022/05/20 02:41:47;;;;;;;17.52;3.40;;;11.10;99.90;;;;;;5038507;28;20029;-75
2022/05/20 02:44:14;;;;;;;12.52;2.63;;;11.10;99.90;;;;;;5022543;28;20170;-75
2022/05/20 02:46:41;;;;;;;8.38;2.50;;;11.20;99.90;;;;;;5017792;28;20021;-75
2022/05/20 02:49:07;;;;;;;9.98;2.63;;;11.10;99.90;;;;;;5022715;28;20025;-75
2022/05/20 02:51:33;;;;;;;13.70;3.00;;;11.10;99.90;;;;;;5021895;28;20028;-76
2022/05/20 02:53:59;;;;;;;10.45;3.05;;;11.00;99.90;;;;;;5030042;28;20048;-75
2022/05/20 02:56:26;;;;;;;10.48;3.17;;;10.90;99.90;;;;;;5021021;28;20388;-75
2022/05/20 03:04:22;;;;;;;8.65;3.17;;;10.90;99.90;;;;;;5030075;28;20618;-75
2022/05/20 03:06:52;;;;;;;10.80;2.35;;;10.90;99.90;;;;;;5019179;28;20104;-76
2022/05/20 03:09:20;;;;;;;11.85;3.28;;;10.90;99.90;;;;;;5021178;28;20116;-75
2022/05/20 03:11:46;;;;;;;12.18;3.67;;;11.00;99.90;;;;;;5020379;28;20117;-76
2022/05/20 03:14:14;;;;;;;9.23;3.25;;;11.00;99.90;;;;;;5020456;28;20083;-75
2022/05/20 03:16:40;;;;;;;11.10;3.15;;;11.00;99.90;;;;;;5023517;28;20437;-75
2022/05/20 03:19:07;;;;;;;11.20;2.78;;;10.90;99.90;;;;;;5028910;28;20067;-75
2022/05/20 03:21:34;;;;;;;11.23;3.13;;;10.90;99.90;;;;;;5033194;28;20028;-75
2022/05/20 03:24:00;;;;;;;8.88;2.83;;;10.90;99.90;;;;;;5028081;28;20037;-75
2022/05/20 03:26:27;;;;;;;5.85;2.22;;;10.90;99.90;;;;;;5022762;28;20044;-75
2022/05/20 03:28:53;;;;;;;12.48;3.05;;;10.90;99.90;;;;;;5029954;28;20045;-75
2022/05/20 03:31:19;;;;;;;9.73;3.05;;;10.80;99.90;;;;;;5022297;28;20043;-75
2022/05/20 03:33:46;;;;;;;16.38;3.75;;;10.90;99.90;;;;;;5024241;28;20029;-75
2022/05/20 03:36:12;;;;;;;11.18;3.25;;;10.80;99.90;;;;;;5020331;28;20033;-74
2022/05/20 03:38:38;;;;;;;9.68;3.50;;;10.90;99.90;;;;;;5022254;28;20079;-75
2022/05/20 03:41:05;;;;;;;11.35;4.40;;;10.80;99.90;;;;;;5023811;28;20450;-75
2022/05/20 03:43:32;;;;;;;12.73;3.78;;;10.80;99.90;;;;;;5029606;28;20303;-75
2022/05/20 03:45:57;;;;;;;12.18;4.20;;;10.90;99.90;;;;;;5035731;28;20033;-75
2022/05/20 03:48:23;;;;;;;12.73;4.43;;;10.90;99.90;;;;;;5028618;28;20547;-75
2022/05/20 03:50:49;;;;;;;9.57;3.53;;;11.00;99.90;;;;;;5021265;28;20029;-75
2022/05/20 03:53:15;;;;;;;11.52;3.30;;;11.00;99.90;;;;;;5022093;28;20030;-75
2022/05/20 03:55:40;;;;;;;17.77;4.47;;;11.10;99.90;;;;;;5038023;28;20072;-75
2022/05/20 03:58:06;;;;;;;9.70;4.38;;;11.10;99.90;;;;;;5023459;28;20033;-75
2022/05/20 04:01:56;;;;;;;10.05;3.90;;;11.20;99.90;;;;;;5030101;28;20036;-75
2022/05/20 04:03:18;;;;;;;13.10;3.65;;;11.20;99.90;;;;;;5026676;28;20107;-75
2022/05/20 04:05:44;;;;;;;12.30;3.70;;;11.30;99.90;;;;;;5037202;28;20057;-75
2022/05/20 04:08:10;;;;;;;13.93;3.55;;;11.30;99.90;;;;;;5028058;28;20523;-75
2022/05/20 04:10:35;;;;;;;6.70;3.25;;;11.40;99.90;;;;;;5023942;28;20116;-75
2022/05/20 04:13:01;;;;;;;9.95;3.58;;;11.40;99.90;;;;;;5028866;28;20060;-75
2022/05/20 04:15:26;;;;;;;11.75;4.18;;;11.40;99.90;;;;;;5029368;28;20429;-75
2022/05/20 04:17:52;;;;;;;8.48;3.53;;;11.40;99.90;;;;;;5019614;28;20057;-75
2022/05/20 04:20:18;;;;;;;14.73;4.18;;;11.40;99.90;;;;;;5021520;28;20423;-75
2022/05/20 04:22:45;;;;;;;13.70;4.25;;;11.50;99.90;;;;;;5020100;28;20111;-75
2022/05/20 04:25:11;;;;;;;18.67;4.05;;;11.50;99.90;;;;;;5022811;28;20135;-75
2022/05/20 04:27:38;;;;;;;12.57;3.95;;;11.50;99.90;;;;;;5021036;28;20048;-75
2022/05/20 04:30:04;;;;;;;10.32;3.90;;;11.50;99.90;;;;;;5021761;28;20517;-76
2022/05/20 04:32:30;;;;;;;12.05;4.50;;;11.50;99.90;;;;;;5011111;28;20034;-75
2022/05/20 04:34:56;;;;;;;13.70;4.60;;;11.50;99.90;;;;;;5024095;28;20034;-75
2022/05/20 04:37:23;;;;;;;13.35;4.85;;;11.50;99.90;;;;;;5020833;28;20067;-74
2022/05/20 04:39:49;;;;;;;8.20;3.90;;;11.60;99.90;;;;;;5029720;28;20025;-75
2022/05/20 04:47:44;;;;;;;11.70;3.50;;;11.80;99.90;;;;;;5018687;28;20040;-75
2022/05/20 04:50:10;;;;;;;12.50;4.55;;;11.80;99.90;;;;;;5030713;28;20029;-75
2022/05/20 04:52:35;;;;;;;19.90;6.10;;;11.90;99.90;;;;;;5030698;28;20036;-75
2022/05/20 04:55:01;;;;;;;12.90;4.85;;;12.00;99.90;;;;;;5019631;28;20049;-75
2022/05/20 04:57:31;;;;;;;12.57;5.10;;;12.10;99.90;;;;;;5020092;28;20021;-75
2022/05/20 04:59:59;;;;;;;25.02;4.50;;;12.10;99.90;;;;;;5020170;28;20706;-74
2022/05/20 05:02:25;;;;;;;12.05;4.50;;;12.10;99.90;;;;;;5030602;28;20063;-75
2022/05/20 05:04:50;;;;;;;14.90;4.95;;;12.10;99.90;;;;;;5029334;28;20029;-75
2022/05/20 05:07:16;;;;;;;12.25;4.38;;;12.20;99.90;;;;;;5016453;28;20033;-75
2022/05/20 05:09:43;;;;;;;15.48;4.85;;;12.30;99.90;;;;;;5038260;28;20136;-75
2022/05/20 05:12:11;;;;;;;15.27;4.97;;;12.30;99.90;;;;;;5040654;28;20041;-75
2022/05/20 05:14:39;;;;;;;17.67;6.95;;;12.30;99.90;;;;;;5022074;28;20037;-74
2022/05/20 05:17:06;;;;;;;16.27;4.85;;;12.30;99.90;;;;;;5022940;28;20766;-75
2022/05/20 05:19:38;;;;;;;14.00;4.43;;;12.30;99.90;;;;;;5026352;28;20072;-75
2022/05/20 05:22:07;;;;;;;17.45;5.68;;;12.30;99.90;;;;;;5022941;28;20839;-75
2022/05/20 05:24:35;;;;;;;19.15;5.05;;;12.30;99.90;;;;;;5026289;28;20052;-75
2022/05/20 05:27:00;;;;;;;18.40;5.78;;;12.30;99.90;;;;;;5023460;28;20044;-74
2022/05/20 05:29:26;;;;;;;17.48;5.43;;;12.20;99.90;;;;;;5020911;28;20033;-75
2022/05/20 05:31:52;;;;;;;18.08;5.40;;;12.20;99.90;;;;;;5023581;28;20040;-75
2022/05/20 05:34:18;;;;;;;18.60;5.85;;;12.20;99.90;;;;;;5027569;28;20038;-74
2022/05/20 05:36:44;;;;;;;18.48;6.30;;;12.20;99.90;;;;;;5022667;28;20022;-75
2022/05/20 05:39:09;;;;;;;15.57;5.88;;;12.20;99.90;;;;;;5023237;28;20728;-75
2022/05/20 05:41:35;;;;;;;16.42;5.95;;;12.20;99.90;;;;;;5024159;28;20035;-75
2022/05/20 05:44:03;;;;;;;19.10;5.78;;;12.30;99.90;;;;;;5025837;28;20041;-75
2022/05/20 05:46:30;;;;;;;14.77;6.35;;;12.30;99.90;;;;;;5024068;28;20108;-75
2022/05/20 05:48:57;;;;;;;12.57;5.55;;;12.30;99.90;;;;;;5024157;28;20060;-75
2022/05/20 05:51:23;;;;;;;17.08;6.30;;;12.30;99.90;;;;;;5027096;28;20072;-74
2022/05/20 05:53:49;;;;;;;16.75;5.82;;;12.50;99.90;;;;;;5033514;28;20041;-74
2022/05/20 05:56:15;;;;;;;14.43;5.55;;;12.50;99.90;;;;;;5042034;28;20048;-75
2022/05/20 05:58:40;;;;;;;19.42;5.65;;;12.70;99.90;;;;;;5032430;28;20511;-76
2022/05/20 06:01:06;;;;;;;16.60;5.80;;;12.90;99.90;;;;;;5021914;28;20033;-76
2022/05/20 06:03:33;;;;;;;16.85;5.88;;;13.00;99.90;;;;;;5023286;28;20121;-74
2022/05/20 06:05:58;;;;;;;13.88;5.60;;;13.20;99.90;;;;;;5021710;28;20120;-75
2022/05/20 06:08:25;;;;;;;14.80;5.57;;;13.40;99.90;;;;;;5020750;28;20441;-75
2022/05/20 06:10:50;;;;;;;15.68;5.63;;;13.60;99.90;;;;;;5023286;28;20619;-73
2022/05/20 06:13:28;;;;;;;18.10;5.85;;;13.70;99.90;;;;;;5021421;28;20033;-74
2022/05/20 06:15:58;;;;;;;14.98;4.97;;;14.00;99.90;;;;;;5023218;28;20567;-74
2022/05/20 06:18:25;;;;;;;19.42;5.53;;;14.00;99.90;;;;;;5018546;28;20086;-74
2022/05/20 06:20:51;;;;;;;19.63;5.75;;;13.90;99.90;;;;;;4677093;28;10000112;-75
2022/05/20 06:23:17;;;;;;;22.80;6.20;;;13.90;99.90;;;;;;5019253;28;20044;-75
2022/05/20 06:25:43;;;;;;;18.00;5.53;;;13.80;99.90;;;;;;5024049;28;20025;-75
2022/05/20 06:28:15;;;;;;;16.80;5.75;;;13.70;99.90;;;;;;5034871;28;20121;-75
2022/05/20 06:30:42;;;;;;;15.55;5.82;;;13.70;99.90;;;;;;5012408;28;20044;-76
2022/05/20 06:33:08;;;;;;;18.27;6.10;;;13.70;99.90;;;;;;5013067;28;20115;-75
2022/05/20 06:41:04;;;;;;;16.45;6.35;;;13.60;99.90;;;;;;5015275;28;20112;-75
2022/05/20 06:43:30;;;;;;;19.33;6.43;;;13.60;99.90;;;;;;5015056;28;20056;-75
2022/05/20 06:46:00;;;;;;;14.40;5.53;;;13.60;99.90;;;;;;5014615;28;20439;-75
2022/05/20 06:48:40;;;;;;;15.00;8.07;;;13.70;99.90;;;;;;5015170;28;20017;-75
2022/05/20 06:51:08;;;;;;;17.20;6.07;;;13.70;99.90;;;;;;5012854;28;20033;-75
2022/05/20 06:53:33;;;;;;;18.20;6.78;;;13.70;99.90;;;;;;5016364;28;20092;-75
2022/05/20 06:55:59;;;;;;;14.48;6.45;;;13.70;99.90;;;;;;5008585;28;20135;-75
2022/05/20 06:58:25;;;;;;;15.27;6.65;;;13.80;99.90;;;;;;5010494;28;20115;-75
2022/05/20 07:00:50;;;;;;;16.38;7.25;;;13.70;99.90;;;;;;5011568;28;20032;-74
2022/05/20 07:03:19;;;;;;;18.52;7.70;;;13.70;99.90;;;;;;5010432;28;20038;-74
2022/05/20 07:05:45;;;;;;;20.05;6.85;;;13.60;99.90;;;;;;5007173;28;20980;-74
2022/05/20 07:08:11;;;;;;;18.90;6.72;;;13.60;99.90;;;;;;5001427;28;20029;-73
2022/05/20 07:10:36;;;;;;;20.63;6.75;;;13.50;99.90;;;;;;4997555;28;20841;-74
2022/05/20 07:13:02;;;;;;;17.42;6.95;;;13.50;99.90;;;;;;5002698;28;20029;-73
2022/05/20 07:15:28;;;;;;;20.05;7.75;;;13.50;99.90;;;;;;4993313;28;20599;-73
2022/05/20 07:17:53;;;;;;;18.10;6.18;;;13.50;99.90;;;;;;5022259;28;20683;-74
2022/05/20 07:20:19;;;;;;;22.50;7.45;;;13.50;99.90;;;;;;5017863;28;20052;-73
2022/05/20 07:22:44;;;;;;;16.45;6.70;;;13.50;99.90;;;;;;5019365;28;20036;-73
2022/05/20 07:25:10;;;;;;;22.15;8.60;;;13.50;99.90;;;;;;5015207;28;20168;-73
2022/05/20 07:27:36;;;;;;;17.85;6.82;;;13.60;99.90;;;;;;5017858;28;20049;-73
2022/05/20 07:30:02;;;;;;;21.98;7.50;;;13.60;99.90;;;;;;5017172;28;20491;-72
2022/05/20 07:32:28;;;;;;;19.00;8.48;;;13.60;99.90;;;;;;5021081;28;20030;-72
2022/05/20 07:34:54;;;;;;;23.35;7.88;;;13.70;99.90;;;;;;5016551;28;20647;-72
2022/05/20 07:37:19;;;;;;;19.55;7.93;;;13.70;99.90;;;;;;5011169;28;20033;-73
2022/05/20 07:39:45;;;;;;;22.45;9.30;;;13.80;99.90;;;;;;5022177;28;20076;-72
2022/05/20 07:42:11;;;;;;;20.52;8.73;;;13.70;99.90;;;;;;5024385;28;20029;-72
2022/05/20 07:44:36;;;;;;;23.25;8.70;;;13.70;99.90;;;;;;5032420;28;20481;-72
2022/05/20 07:47:03;;;;;;;22.27;8.80;;;13.60;99.90;;;;;;5034466;28;20392;-72
2022/05/20 07:49:29;;;;;;;21.30;10.48;;;13.60;99.90;;;;;;5025346;28;20041;-73
2022/05/20 07:51:57;;;;;;;30.58;10.48;;;13.60;99.90;;;;;;5016092;28;20107;-73
2022/05/20 07:54:25;;;;;;;22.60;10.50;;;13.50;99.90;;;;;;5017161;28;20480;-73
2022/05/20 07:56:59;;;;;;;21.27;10.05;;;13.60;99.90;;;;;;5011093;28;20123;-73
2022/05/20 07:59:40;;;;;;;22.27;10.60;;;13.50;99.90;;;;;;5016468;28;20037;-73
2022/05/20 08:02:07;;;;;;;19.93;9.67;;;13.60;99.90;;;;;;5023868;28;20025;-72
2022/05/20 08:04:53;;;;;;;25.25;10.52;;;13.50;99.90;;;;;;5017653;28;20040;-73
2022/05/20 08:07:27;;;;;;;27.42;9.60;;;13.50;99.90;;;;;;5019024;28;20049;-72
2022/05/20 08:09:53;;;;;;;24.92;9.13;;;13.50;99.90;;;;;;5020826;28;20032;-72
2022/05/20 08:12:19;;;;;;;24.08;7.82;;;13.40;99.90;;;;;;5025670;28;20028;-71
2022/05/20 08:14:44;;;;;;;15.80;5.72;;;13.30;99.90;;;;;;5025109;28;20511;-71
2022/05/20 08:17:10;;;;;;;19.60;6.60;;;13.30;99.90;;;;;;5022395;28;20042;-71
2022/05/20 08:19:37;;;;;;;9.15;2.45;;;13.20;99.90;;;;;;5019483;28;20029;-71
2022/05/20 08:22:03;;;;;;;7.20;1.60;;;13.00;99.90;;;;;;5012133;28;20041;-72
2022/05/20 08:24:30;;;;;;;8.65;1.65;;;12.80;99.90;;;;;;5021955;28;20050;-71
2022/05/20 08:26:56;;;;;;;10.13;1.98;;;12.50;99.90;;;;;;5011638;28;20022;-71
2022/05/20 08:29:22;;;;;;;8.35;1.42;;;12.30;99.90;;;;;;5009989;28;20058;-71
2022/05/20 08:31:47;;;;;;;6.07;1.42;;;12.20;99.90;;;;;;5009477;28;20037;-70
2022/05/20 08:34:13;;;;;;;4.88;1.30;;;12.20;99.90;;;;;;5013246;28;20044;-71
2022/05/20 08:36:40;;;;;;;8.13;1.20;;;12.10;99.90;;;;;;5013339;28;20032;-72
2022/05/20 08:39:10;;;;;;;7.65;2.08;;;12.00;99.90;;;;;;5008952;28;20839;-71
2022/05/20 08:41:42;;;;;;;9.43;1.40;;;12.00;99.90;;;;;;5023543;28;20496;-72
2022/05/20 08:44:12;;;;;;;4.00;1.23;;;12.00;99.90;;;;;;5012319;28;20126;-71
2022/05/20 08:46:40;;;;;;;3.72;0.65;;;11.90;99.90;;;;;;5012556;28;20033;-71
2022/05/20 08:49:10;;;;;;;5.03;1.08;;;11.80;99.90;;;;;;5018918;28;20128;-71
2022/05/20 08:51:37;;;;;;;3.33;0.65;;;11.70;99.90;;;;;;5010163;28;20819;-72
2022/05/20 08:54:04;;;;;;;2.90;0.88;;;11.70;99.90;;;;;;5021714;28;20033;-72
2022/05/20 08:56:30;;;;;;;3.50;1.23;;;11.50;99.90;;;;;;5019605;28;20040;-71
2022/05/20 08:59:24;;;;;;;5.05;1.10;;;11.40;99.90;;;;;;5015621;28;20033;-72
2022/05/20 09:01:52;;;;;;;2.17;0.88;;;11.30;99.90;;;;;;5013387;28;20037;-71
2022/05/20 09:04:22;;;;;;;4.22;1.00;;;11.30;99.90;;;;;;5014960;28;20458;-72
2022/05/20 09:07:02;;;;;;;1.95;0.55;;;11.30;99.90;;;;;;5008743;28;20710;-71
2022/05/20 09:09:52;;;;;;;4.43;0.95;;;11.30;99.90;;;;;;5010311;28;20033;-71
2022/05/20 09:12:31;;;;;;;9.90;1.63;;;11.20;99.90;;;;;;5005314;28;20029;-71
2022/05/20 09:18:06;;;;;;;3.70;0.98;;;11.20;99.90;;;;;;5016684;28;20591;-72
2022/05/20 09:20:31;;;;;;;1.52;1.00;;;11.30;99.90;;;;;;5011663;28;20096;-72
2022/05/20 09:23:04;;;;;;;4.82;1.05;;;11.30;99.90;;;;;;5007599;28;20021;-72
2022/05/20 09:25:33;;;;;;;5.22;0.95;;;11.20;99.90;;;;;;5009200;28;20042;-71
2022/05/20 09:28:18;;;;;;;4.07;0.85;;;11.30;99.90;;;;;;5009624;28;20045;-72
2022/05/20 09:30:48;;;;;;;2.40;0.90;;;11.20;99.90;;;;;;4661709;28;9999872;-72
2022/05/20 09:33:30;;;;;;;6.50;1.30;;;11.30;99.90;;;;;;5009107;28;20041;-72
2022/05/20 09:35:58;;;;;;;3.60;1.25;;;11.30;99.90;;;;;;5006986;28;20045;-71
2022/05/20 09:38:35;;;;;;;6.65;1.80;;;11.30;99.90;;;;;;5009882;28;20026;-71
2022/05/20 09:41:14;;;;;;;4.97;1.48;;;11.10;99.90;;;;;;5017681;28;20563;-72
2022/05/20 09:43:43;;;;;;;3.15;0.95;;;11.20;99.90;;;;;;5023327;28;20041;-71
2022/05/20 09:46:39;;;;;;;9.40;1.33;;;11.20;99.90;;;;;;5012277;28;20053;-72
2022/05/20 09:49:37;;;;;;;5.90;1.10;;;11.20;99.90;;;;;;5006275;28;20033;-72
2022/05/20 09:52:13;;;;;;;4.35;0.93;;;11.30;99.90;;;;;;5018293;28;20161;-71
2022/05/20 09:54:44;;;;;;;3.75;1.00;;;11.20;99.90;;;;;;5017979;28;20037;-71
2022/05/20 09:57:31;;;;;;;4.00;1.38;;;11.10;99.90;;;;;;5011779;28;20021;-72
2022/05/20 10:00:09;;;;;;;6.13;1.27;;;11.20;99.90;;;;;;5018294;28;20026;-71
2022/05/20 10:02:43;;;;;;;5.90;1.52;;;11.20;99.90;;;;;;5016965;28;20489;-72
2022/05/20 10:05:36;;;;;;;3.08;1.40;;;11.30;99.90;;;;;;5003866;28;20549;-71
2022/05/20 10:08:07;;;;;;;4.97;2.53;;;11.30;99.90;;;;;;5009680;28;20311;-72
2022/05/20 10:11:03;;;;;;;4.45;1.13;;;11.30;99.90;;;;;;5009980;28;20068;-72
2022/05/20 10:13:33;;;;;;;6.15;1.25;;;11.30;99.90;;;;;;5012094;28;20056;-70
2022/05/20 10:16:16;;;;;;;3.83;1.35;;;11.20;99.90;;;;;;5021924;28;20053;-70
2022/05/20 10:19:07;;;;;;;5.68;1.65;;;11.40;99.90;;;;;;5012463;28;20483;-72
2022/05/20 10:21:56;;;;;;;5.75;1.35;;;11.50;99.90;;;;;;5010529;28;20033;-71
2022/05/20 10:24:30;;;;;;;3.50;1.05;;;11.50;99.90;;;;;;5007798;28;20045;-71
2022/05/20 10:27:10;;;;;;;5.70;1.90;;;11.50;99.90;;;;;;5009927;28;20076;-71
2022/05/20 10:33:02;;;;;;;4.25;1.50;;;11.50;99.90;;;;;;5018046;28;20048;-73
2022/05/20 10:35:43;;;;;;;2.63;1.33;;;11.50;99.90;;;;;;5018418;28;20098;-72
2022/05/20 10:38:26;;;;;;;4.15;1.17;;;11.60;99.90;;;;;;5012652;28;20029;-72
2022/05/20 10:41:27;;;;;;;2.85;0.80;;;11.70;99.90;;;;;;5020510;28;20037;-71
2022/05/20 10:50:14;;;;;;;5.97;1.30;;;12.20;99.90;;;;;;5001431;28;20044;-74
2022/05/20 10:53:20;;;;;;;3.78;1.48;;;12.20;99.90;;;;;;5007145;28;20070;-71
2022/05/20 10:56:04;;;;;;;3.35;1.00;;;12.40;99.90;;;;;;4979844;28;20104;-71
2022/05/20 10:59:03;;;;;;;2.92;1.25;;;12.70;99.90;;;;;;5027740;28;20032;-71
2022/05/20 11:01:48;;;;;;;6.72;1.15;;;12.90;99.90;;;;;;5019027;28;20042;-71
2022/05/20 11:04:25;;;;;;;3.88;1.00;;;13.10;99.90;;;;;;4995099;28;20052;-71
2022/05/20 11:07:31;;;;;;;2.15;0.95;;;13.10;99.90;;;;;;5014453;28;20079;-72
2022/05/20 11:10:25;;;;;;;3.63;1.33;;;13.20;99.90;;;;;;5018739;28;20182;-71
2022/05/20 11:13:08;;;;;;;1.64;0.80;;;13.10;99.90;;;;;;4674438;28;10000645;-72
2022/05/20 11:15:53;;;;;;;3.63;1.20;;;13.10;99.90;;;;;;5001229;28;20105;-72
2022/05/20 11:18:31;;;;;;;4.00;1.00;;;12.90;99.90;;;;;;5024908;28;20119;-71
2022/05/20 11:21:28;;;;;;;1.98;1.00;;;12.80;99.90;;;;;;5019000;28;20049;-72
2022/05/20 11:24:01;;;;;;;7.75;1.75;;;12.70;99.90;;;;;;5010600;28;20032;-72
2022/05/20 11:26:57;;;;;;;3.33;1.00;;;12.60;99.90;;;;;;5013735;28;20099;-72
2022/05/20 11:29:35;;;;;;;4.82;1.70;;;12.50;99.90;;;;;;5016876;28;20045;-72
2022/05/20 11:32:07;;;;;;;2.78;1.35;;;12.50;99.90;;;;;;5004639;28;20026;-73
2022/05/20 11:35:12;;;;;;;3.60;1.73;;;12.40;99.90;;;;;;5011785;28;20033;-74
2022/05/20 11:37:56;;;;;;;1.73;1.00;;;12.40;99.90;;;;;;4990210;28;20697;-73
2022/05/20 11:40:32;;;;;;;2.72;1.70;;;12.40;99.90;;;;;;5019894;28;20056;-74
2022/05/20 11:43:16;;;;;;;4.75;1.60;;;12.60;99.90;;;;;;5033905;28;20017;-74
2022/05/20 11:46:09;;;;;;;3.92;2.10;;;12.80;99.90;;;;;;5018964;28;20053;-74
2022/05/20 11:48:56;;;;;;;4.50;1.73;;;12.80;99.90;;;;;;5002567;28;20051;-74
2022/05/20 11:51:45;;;;;;;5.32;2.30;;;12.90;99.90;;;;;;5015239;28;20029;-73
2022/05/20 11:54:22;;;;;;;4.05;2.10;;;13.00;99.90;;;;;;5008187;28;20033;-73
2022/05/20 11:56:58;;;;;;;8.38;2.42;;;13.10;99.90;;;;;;5005889;28;22766;-74
2022/05/20 11:59:39;;;;;;;3.72;2.20;;;13.40;99.90;;;;;;5022612;28;20036;-73
2022/05/20 12:02:08;;;;;;;5.03;2.45;;;13.60;99.90;;;;;;5016234;28;20026;-73
2022/05/20 12:04:36;;;;;;;4.97;2.30;;;13.70;99.90;;;;;;5013614;28;20114;-73
2022/05/20 12:07:06;;;;;;;9.07;3.28;;;13.80;99.90;;;;;;5008347;28;20037;-72
2022/05/20 12:09:44;;;;;;;4.83;2.37;;;14.00;99.90;;;;;;5011986;28;20044;-73
2022/05/20 12:12:13;;;;;;;4.95;1.98;;;14.20;99.90;;;;;;5017159;28;20029;-73
2022/05/20 12:14:54;;;;;;;5.65;1.88;;;14.30;99.90;;;;;;5014063;28;20040;-73
2022/05/20 12:17:36;;;;;;;4.47;1.75;;;14.30;99.90;;;;;;5022346;28;20108;-74
2022/05/20 12:26:03;;;;;;;5.05;2.08;;;14.70;99.90;;;;;;5014621;28;20757;-72
2022/05/20 12:28:31;;;;;;;3.20;1.60;;;15.00;99.90;;;;;;5015935;28;20575;-72
2022/05/20 12:31:14;;;;;;;3.85;1.85;;;15.20;99.90;;;;;;5014394;28;20030;-73
2022/05/20 12:34:05;;;;;;;8.10;2.58;;;15.20;99.90;;;;;;5008388;28;20042;-72
2022/05/20 12:36:40;;;;;;;5.18;1.80;;;15.30;99.90;;;;;;5013656;28;20538;-73
2022/05/20 12:39:09;;;;;;;4.90;1.67;;;15.50;99.90;;;;;;5011792;28;20033;-73
2022/05/20 12:41:50;;;;;;;7.03;2.35;;;15.70;99.90;;;;;;5015267;28;20060;-73
2022/05/20 12:44:15;;;;;;;4.88;1.88;;;15.90;99.90;;;;;;5018207;28;20046;-73
2022/05/20 12:47:37;;;;;;;5.57;1.52;;;16.60;99.90;;;;;;5016296;28;20026;-73
2022/05/20 12:50:19;;;;;;;5.00;1.30;;;17.10;99.90;;;;;;4955394;28;20062;-73
2022/05/20 12:52:51;;;;;;;4.40;1.60;;;17.50;99.90;;;;;;5007925;28;20504;-73
2022/05/20 12:55:28;;;;;;;;;;;17.30;98.00;;;;;;5004173;28;20141;-74
2022/05/20 12:58:03;;;;;;;4.07;1.58;;;17.10;99.90;;;;;;5013469;28;20372;-73
2022/05/20 13:00:40;;;;;;;5.47;1.20;;;17.60;99.90;;;;;;5016899;28;20116;-73
2022/05/20 13:03:28;;;;;;;4.63;1.40;;;18.00;99.90;;;;;;5003546;28;20389;-73
2022/05/20 13:05:56;;;;;;;3.47;0.90;;;18.60;99.50;;;;;;5013010;28;20037;-73
2022/05/20 13:08:26;;;;;;;3.45;1.42;;;18.90;98.00;;;;;;5014765;28;20574;-73
2022/05/20 13:10:51;;;;;;;6.47;1.42;;;19.00;98.70;;;;;;5013004;28;20079;-73
2022/05/20 13:13:23;;;;;;;2.83;1.02;;;18.90;98.90;;;;;;5020586;28;20041;-73
2022/05/20 13:15:57;;;;;;;2.83;1.27;;;18.80;99.90;;;;;;5016123;28;20021;-73
2022/05/20 13:18:30;;;;;;;3.58;1.40;;;19.10;99.90;;;;;;5020835;28;20077;-72
2022/05/20 13:21:18;;;;;;;3.05;1.55;;;19.30;96.50;;;;;;4665257;28;10000031;-72
2022/05/20 13:23:48;;;;;;;4.70;1.10;;;19.80;99.30;;;;;;5025694;28;20067;-73
2022/05/20 13:26:28;;;;;;;3.55;0.93;;;19.70;98.00;;;;;;5017297;28;20406;-72
2022/05/20 13:29:21;;;;;;;2.42;0.80;;;19.80;96.30;;;;;;5019528;28;20077;-73
2022/05/20 13:31:47;;;;;;;0.95;0.80;;;19.80;98.80;;;;;;5017036;28;20132;-73
2022/05/20 13:34:13;;;;;;;1.92;0.98;;;19.60;95.30;;;;;;5014369;28;20033;-72
2022/05/20 13:36:50;;;;;;;2.45;1.10;;;19.20;93.80;;;;;;5019488;28;20389;-73
2022/05/20 13:39:18;;;;;;;2.50;1.35;;;18.90;94.00;;;;;;5016341;28;20033;-72
2022/05/20 13:41:45;;;;;;;4.55;0.80;;;18.60;99.50;;;;;;5024134;28;20060;-72